메인 페이지
METAR-TAF:

METAR-TAF

공항 :

댈러스 포트워스 국제공항

댈러스 / 포트워스, 텍사스, 미국

위도: 32-53-49N, 경도: 097-01-19W, 고도: 183m

현재 날씨관측

예보는 57분 전, 15:53시(UTC)에 발표되었습니다.
남동7kt
온도 11°C
습도 100%
기압 1013 hPa
시정: 0.8km
고도 300ft 상공 흐림
약한이슬비, 박무

METAR: KDFW 191553Z 14007KT 1/2SM R17C/5500VP6000FT -DZ BR OVC003 11/11 A2990 RMK AO2 SFC VIS 1 DZB52 SLP122 P0000 T01110111

시각: 10:50 (16:50 UTC)

예보

예보는 1 시간 55분 전, 14:55시(UTC)에 발표되었습니다.
예보 대상 시간: 19일 15시부터 20일 18시까지 (UTC)
남남동6kt
시정: 3.2km
고도 500ft 상공 흐림
약한이슬비, 박무
일시적
19일 15시부터 19일 16시까지 (UTC)
시정: 1.6km
고도 300ft 상공 흐림
박무
19일 1600시부터 (UTC)
남남동6kt
시정: 4.8km
고도 500ft 상공 흐림
박무
19일 1800시부터 (UTC)
6kt
시정: 10km
고도 1000ft 상공 구름 많음
19일 2200시부터 (UTC)
남남서5kt
시정: 10km
고도 2500ft 상공 구름 보통
고도 3500ft 상공 구름 많음
20일 0200시부터 (UTC)
서북서10kt
시정: 8.0km
고도 2500ft 상공 구름 보통
고도 3500ft 상공 구름 많음
약한소나기, 박무
20일 0700시부터 (UTC)
북북서19kt
시정: 10km
고도 5000ft 상공 구름 보통
20일 1400시부터 (UTC)
북북서24kt, 순간 최대 풍속 34kt
시정: 10km
맑음

TAF: KDFW 191455Z 1915/2018 16006KT 2SM -DZ BR OVC005 TEMPO 1915/1916 1SM BR OVC003 FM191600 16006KT 3SM BR OVC005 FM191800 17006KT P6SM BKN010 FM192200 20005KT P6SM SCT025 BKN035 FM200200 30010KT 5SM -SHRA BR SCT025 BKN035 FM200700 33019KT P6SM SCT050 FM201400 34024G34KT P6SM SKC

4,000개 이상의 공항 관측 자료 및 예보 (METAR 및 TAF 보고).

지도상에서 검색 가능한 기상관측소가 노란 점과 빨간 점으로 표시되어 있습니다.

기상관측소 명을 보려면 표시 위로 마우스를 이동하세요.

날씨 관측과 예보를 보려면 클릭하세요.

지도 변경 : 확대하려면 엑스 표시가 있는 녹색 버튼, 축소하려면 빼기 표시가 있는 녹색 버튼, 다음 페이지의 지도를 보려면 녹색 화살표를 클릭하세요.


METAR-TAF: